Search for airport 
image banner adimage banner adimage banner ad
image banner ad

CA21 - Limberlost Ranch

Located in Rough And Ready, United States

ICAO - CA21, IATA -

Data provided by Airmate  

General information

Coordinates: N39°13'15" W121°12'54"
Elevation is 1650 feet MSL.
Magnetic variation is 16° East
View others Airports in California

Operational data

Special qualification required
Current time UTC:
Current local time:
Weather at : KGOO - Nevada County Air Park ( 18 km )
METAR: KGOO 141115Z AUTO 00000KT 10SM BKN050 BKN055 14/10 A3004 RMK A01
View NOTAMs / SUP AIP / TFR affecting this airport [VIEW]
Communications frequencies: [VIEW]

Runways:

RWY identifierQFULength (ft)Width (ft)SurfaceLDA (ft)
101700100GRASS
281700100GRASS

Airport contact information

Address: Rough And Ready United States

Satellite view of CA21